DeSoto, TX (75115)

12:44 PM CST on December 03, 2016 (GMT -0600)
Southampton Estates | | Change Station

Elev 623 ft 32.58 °N, 96.86 °W | Updated 33 seconds ago

Light Rain
Light Rain Mist
48.9 °F
Feels Like 47 °F
N
4.7
Wind Variable Wind from NNE

Today
High -- | Low -- °F
--% Chance of Precip.
Yesterday
High -- | Low -- °F
Precip. -- in
Pressure 30.03 in
Visibility 5.0 miles
Clouds Mostly Cloudy 800 ft
Overcast 1300 ft
Windchill 47 °F
Dew Point 47 °F
Humidity 93%
Rainfall 0.62 in
Snow Depth Not available.
7:13 AM 5:21 PM
Waxing Crescent, 16% visible
SPECI KRBD 031830Z 09007KT 5SM -RA BR BKN008 OVC013 10/09 A3003 RMK AO2 RAE10B22 CIG 005V009 P0000 T01000094
Pressure 30.03 in
Visibility 5.0 miles
Clouds Mostly Cloudy 800 ft
Overcast 1300 ft
Windchill 47 °F
Dew Point 47 °F
Humidity 93%
Rainfall 0.62 in
Snow Depth Not available.
7:13 AM 5:21 PM
Waxing Crescent, 16% visible
SPECI KRBD 031830Z 09007KT 5SM -RA BR BKN008 OVC013 10/09 A3003 RMK AO2 RAE10B22 CIG 005V009 P0000 T01000094

10-Day Weather Forecast

Almanac

Astronomy

Dec. 03, 2016 Rise Set
Actual Time
Civil Twilight
Nautical Twilight
Astronomical Twilight
Moon
Length of Visible Light
Length of Day
Tomorrow will be .
, % of the Moon is Illuminated

Today's Extremes

State Highs State Lows

Community

WunderPhotos

Upload Photos

1,955,469 photos uploaded!

WunderBlog® & News

Nearby

Air Quality

  Air Quality AQ Index Pollutant
Not available.

Snow Depth

Station Depth Elevation

Earthquake Activity

City Distance Mag. Time & Date
Minimum magnitude displayed is 2.5.

Coastal Water Temperatures

Place Temperature

Stations

Nearby Weather Stations

Station Location Temp. Windchill Dew Point Humidity Wind Precip. Elev Updated Type
                   

Watches & Warnings

There are currently no watches in effect.